Voidomatis — A8FX2 — position and weather

sailwx.info

Track history (hours):
 
Tides and Currents Weather Stations Pressure Air Temp Water Temp Dewpoint Dewpoint Depression Visibility Wind Speed Wind Dir Waves Ship Positions

Voidomatis

Last reported at 2018-Feb-13 17:17 UTC. Time now 2018-Feb-20 23:47 UTC.
Position N 09°35' W 079°57'.

Length 214 m; draft 7.6 m.

Type: Tanker. MMSI: 636012508.

Date/timePositionNaut miles runAvg speedWind from/ knotsBaromVisibWave heightAir tempDewpointWater temp
2018-Feb-13 17:17N 09°35' W 079°57'311.1
2018-Feb-13 16:59N 09°31' W 079°56'510.8
2018-Feb-13 16:30N 09°26' W 079°55'5 9.4
2018-Feb-13 16:00N 09°22' W 079°55'1 2.2
2018-Feb-13 15:30N 09°21' W 079°54'0 0.0
2018-Feb-13 14:58N 09°21' W 079°54'0 0.0
2018-Feb-13 14:28N 09°21' W 079°54'0 0.0
2018-Feb-13 13:58N 09°21' W 079°54'0 0.0
2018-Feb-13 13:28N 09°21' W 079°54'0 0.0
2018-Feb-13 12:46N 09°21' W 079°54'0 0.0
2018-Feb-13 12:25N 09°21' W 079°54'0 0.0
2018-Feb-13 11:52N 09°21' W 079°54'0 0.0
2018-Feb-13 11:28N 09°21' W 079°54'0 0.0
2018-Feb-13 10:55N 09°21' W 079°54'0 0.0
2018-Feb-13 10:28N 09°21' W 079°54'0 0.0
2018-Feb-13 09:58N 09°21' W 079°54'0 0.0
2018-Feb-13 09:28N 09°21' W 079°54'0 0.0
2018-Feb-13 08:55N 09°21' W 079°54'0 0.0
2018-Feb-13 08:28N 09°21' W 079°54'0 0.0
2018-Feb-13 07:58N 09°21' W 079°54'0 0.0
2018-Feb-13 07:28N 09°21' W 079°54'0 0.0
2018-Feb-13 06:58N 09°21' W 079°54'0 0.0
2018-Feb-13 06:28N 09°21' W 079°54'0 0.0
2018-Feb-13 05:58N 09°21' W 079°54'0 0.0
2018-Feb-13 05:28N 09°21' W 079°54'0 0.0
2018-Feb-13 04:58N 09°21' W 079°54'0 0.0
2018-Feb-13 04:28N 09°21' W 079°54'0 0.0
2018-Feb-13 03:58N 09°21' W 079°54'0 0.0
2018-Feb-13 03:28N 09°21' W 079°54'0 0.0
2018-Feb-13 02:58N 09°21' W 079°54'0 0.0
2018-Feb-13 02:28N 09°21' W 079°54'0 0.0
2018-Feb-13 01:55N 09°21' W 079°54'0 0.0
2018-Feb-13 01:28N 09°21' W 079°54'0 0.0
2018-Feb-13 00:55N 09°21' W 079°54'0 0.0
2018-Feb-13 00:28N 09°21' W 079°54'0 0.0
2018-Feb-12 23:58N 09°21' W 079°54'0 0.0
2018-Feb-12 23:28N 09°21' W 079°54'0 0.0
2018-Feb-12 22:58N 09°21' W 079°54'0 0.0
2018-Feb-12 22:28N 09°21' W 079°54'0 0.0
2018-Feb-12 21:58N 09°21' W 079°54'0 0.0
2018-Feb-12 21:28N 09°21' W 079°54'0 0.0
2018-Feb-12 20:58N 09°21' W 079°54'0 0.0
2018-Feb-12 20:28N 09°21' W 079°54'0 0.0
2018-Feb-12 19:58N 09°21' W 079°54'0 0.0
2018-Feb-12 19:28N 09°21' W 079°54'0 0.0
2018-Feb-12 18:58N 09°21' W 079°54'0 0.0
2018-Feb-12 18:28N 09°21' W 079°54'0 0.0
2018-Feb-12 17:58N 09°21' W 079°54'0 0.0
2018-Feb-12 17:04N 09°21' W 079°54'0 0.0
2018-Feb-12 16:40N 09°21' W 079°54'0 0.0
2018-Feb-12 16:25N 09°21' W 079°54'0 0.0
2018-Feb-12 15:37N 09°21' W 079°54'0 0.0
2018-Feb-12 15:16N 09°21' W 079°54'0 0.0
2018-Feb-12 14:58N 09°21' W 079°54'0 0.0
2018-Feb-12 14:28N 09°21' W 079°54'0 0.0
2018-Feb-12 13:58N 09°21' W 079°54'0 0.0
2018-Feb-12 13:25N 09°21' W 079°54'0 0.0
2018-Feb-12 12:58N 09°21' W 079°54'0 0.0
2018-Feb-12 12:28N 09°21' W 079°54'0 0.0
2018-Feb-12 11:58N 09°21' W 079°54'0 0.0
2018-Feb-12 11:22N 09°21' W 079°54'0 0.0
2018-Feb-12 10:58N 09°21' W 079°54'0 0.0
2018-Feb-12 10:28N 09°21' W 079°54'0 0.0
2018-Feb-12 09:58N 09°21' W 079°54'0 0.3
2018-Feb-12 09:30N 09°21' W 079°55'1 1.8
2018-Feb-12 09:00N 09°21' W 079°55'2 4.9
2018-Feb-12 08:30N 09°24' W 079°55'2 4.2
2018-Feb-12 08:00N 09°26' W 079°55'2 3.1
2018-Feb-12 07:30N 09°27' W 079°54'2 5.0
2018-Feb-12 07:00N 09°28' W 079°52'0 0.2
2018-Feb-12 06:28N 09°27' W 079°52'0 0.0
2018-Feb-12 05:58N 09°27' W 079°52'0 0.0
2018-Feb-12 05:28N 09°27' W 079°52'0 0.0
2018-Feb-12 04:58N 09°27' W 079°52'0 0.0
2018-Feb-12 04:28N 09°27' W 079°52'0 0.0
2018-Feb-12 03:58N 09°27' W 079°52'0 0.0
2018-Feb-12 03:28N 09°27' W 079°52'0 0.0
2018-Feb-12 02:58N 09°27' W 079°52'0 0.0
2018-Feb-12 02:28N 09°27' W 079°52'0 0.0
2018-Feb-12 01:58N 09°27' W 079°52'0 0.0
2018-Feb-12 01:28N 09°27' W 079°52'0 0.0
2018-Feb-12 00:58N 09°27' W 079°52'0 0.1
2018-Feb-12 00:28N 09°27' W 079°52'0 0.0
2018-Feb-11 23:58N 09°27' W 079°52'0 0.0
2018-Feb-11 23:28N 09°27' W 079°52'0 0.0
2018-Feb-11 22:58N 09°27' W 079°52'0 0.0
2018-Feb-11 22:28N 09°27' W 079°52'0 0.0
2018-Feb-11 21:58N 09°27' W 079°52'0 0.0
2018-Feb-11 21:28N 09°27' W 079°52'0 0.0
2018-Feb-11 20:58N 09°27' W 079°52'0 0.0
2018-Feb-11 20:28N 09°27' W 079°52'0 0.0
2018-Feb-11 19:58N 09°27' W 079°52'0 0.0
2018-Feb-11 19:28N 09°27' W 079°52'0 0.0
2018-Feb-11 18:58N 09°27' W 079°52'0 0.1
2018-Feb-11 18:22N 09°27' W 079°52'0 0.0
2018-Feb-11 17:55N 09°27' W 079°52'0 0.0
2018-Feb-11 17:28N 09°27' W 079°52'0 0.0
2018-Feb-11 16:58N 09°28' W 079°52'0 0.1
2018-Feb-11 16:28N 09°27' W 079°52'0 0.0
2018-Feb-11 15:58N 09°27' W 079°52'0 0.0
2018-Feb-11 15:28N 09°27' W 079°52'0 0.1
2018-Feb-11 14:52N 09°28' W 079°52'0 0.0
2018-Feb-11 14:28N 09°27' W 079°52'0 0.0
2018-Feb-11 13:58N 09°28' W 079°52'0 0.1
2018-Feb-11 13:28N 09°27' W 079°52'0 0.0
2018-Feb-11 12:49N 09°27' W 079°52'0 0.1
2018-Feb-11 12:28N 09°27' W 079°52'0 0.0
2018-Feb-11 11:58N 09°27' W 079°52'0 0.0
2018-Feb-11 11:28N 09°27' W 079°52'0 0.0
2018-Feb-11 10:58N 09°27' W 079°52'0 0.1
2018-Feb-11 10:28N 09°27' W 079°52'0 0.0
2018-Feb-11 09:58N 09°27' W 079°52'0 0.0
2018-Feb-11 08:43N 09°27' W 079°52'0 0.1
2018-Feb-11 08:28N 09°27' W 079°52'0 0.0
2018-Feb-11 07:58N 09°27' W 079°52'0 0.0
2018-Feb-11 07:28N 09°27' W 079°52'0 0.0
2018-Feb-11 06:58N 09°27' W 079°52'0 0.0
2018-Feb-11 06:28N 09°27' W 079°52'0 0.0
2018-Feb-11 05:58N 09°27' W 079°52'0 0.0
2018-Feb-11 05:28N 09°27' W 079°52'0 0.0
2018-Feb-11 04:58N 09°27' W 079°52'0 0.0
2018-Feb-11 04:28N 09°27' W 079°52'0 0.0
2018-Feb-11 03:58N 09°27' W 079°52'0 0.0
2018-Feb-11 03:19N 09°27' W 079°52'0 0.1
2018-Feb-11 02:58N 09°27' W 079°52'0 0.0
2018-Feb-11 02:28N 09°27' W 079°52'0 0.0
2018-Feb-11 01:58N 09°27' W 079°52'0 0.0
2018-Feb-11 01:28N 09°27' W 079°52'0 0.0
2018-Feb-11 00:58N 09°27' W 079°52'0 0.0
2018-Feb-11 00:28N 09°27' W 079°52'0 0.0
2018-Feb-10 23:55N 09°27' W 079°52'0 0.0
2018-Feb-10 23:28N 09°27' W 079°52'0 0.1
2018-Feb-10 22:55N 09°27' W 079°52'0 0.0
2018-Feb-10 22:25N 09°27' W 079°52'0 0.0
2018-Feb-10 21:58N 09°28' W 079°52'0 0.0
2018-Feb-10 21:28N 09°27' W 079°52'0 0.1
2018-Feb-10 20:58N 09°27' W 079°52'0 0.0
2018-Feb-10 20:28N 09°27' W 079°52'0 0.1
2018-Feb-10 19:58N 09°28' W 079°52'0 0.0
2018-Feb-10 19:28N 09°28' W 079°52'0 0.1
2018-Feb-10 18:58N 09°27' W 079°52'0 0.1
2018-Feb-10 18:19N 09°28' W 079°52'0 0.1
2018-Feb-10 17:46N 09°27' W 079°52'0 0.1
2018-Feb-10 17:25N 09°28' W 079°52'0 0.1
2018-Feb-10 16:58N 09°27' W 079°52'0 0.0
2018-Feb-10 16:28N 09°27' W 079°52'0 0.1
2018-Feb-10 15:58N 09°28' W 079°52'0 0.1
2018-Feb-10 15:28N 09°27' W 079°52'0 0.1
2018-Feb-10 14:55N 09°28' W 079°52'0 0.1
2018-Feb-10 14:22N 09°27' W 079°52'0 0.0
2018-Feb-10 13:55N 09°27' W 079°52'0 0.1
2018-Feb-10 13:28N 09°28' W 079°52'0 0.0
2018-Feb-10 12:52N 09°27' W 079°52'0 0.1
2018-Feb-10 12:28N 09°27' W 079°52'0 0.1
2018-Feb-10 11:55N 09°27' W 079°52'0 0.0
2018-Feb-10 11:25N 09°27' W 079°52'0 0.1
2018-Feb-10 10:58N 09°27' W 079°52'0 0.1
2018-Feb-10 10:25N 09°28' W 079°52'0 0.0
2018-Feb-10 09:58N 09°27' W 079°52'0 0.1
2018-Feb-10 09:28N 09°27' W 079°52'0 0.1
2018-Feb-10 08:58N 09°27' W 079°52'0 0.0
2018-Feb-10 08:25N 09°27' W 079°52'0 0.0
2018-Feb-10 07:52N 09°27' W 079°52'0 0.0
2018-Feb-10 07:28N 09°27' W 079°52'0 0.1
2018-Feb-10 06:58N 09°28' W 079°52'0 0.0
2018-Feb-10 06:28N 09°27' W 079°52'0 0.1
2018-Feb-10 05:58N 09°27' W 079°52'0 0.0
2018-Feb-10 05:25N 09°27' W 079°52'0 0.1
2018-Feb-10 04:58N 09°28' W 079°52'0 0.0
2018-Feb-10 04:22N 09°27' W 079°52'0 0.0
2018-Feb-10 03:58N 09°27' W 079°52'0 0.0
2018-Feb-10 03:28N 09°28' W 079°52'0 0.5
2018-Feb-10 03:01N 09°28' W 079°52'2 3.2
2018-Feb-10 02:31N 09°27' W 079°53'2 4.2
2018-Feb-10 02:01N 09°25' W 079°55'1 2.8
2018-Feb-10 01:30N 09°24' W 079°54'2 4.3
2018-Feb-10 01:01N 09°22' W 079°53'0 0.4
2018-Feb-10 00:29N 09°22' W 079°53'0 0.0
2018-Feb-09 23:59N 09°22' W 079°53'0 0.0
2018-Feb-09 23:29N 09°22' W 079°53'0 0.0
2018-Feb-09 22:56N 09°22' W 079°53'0 0.0
2018-Feb-09 22:41N 09°22' W 079°53'  
Track history (hours):
 
Tides and Currents Weather Stations Pressure Air Temp Water Temp Dewpoint Dewpoint Depression Visibility Wind Speed Wind Dir Waves Ship Positions

Voidomatis

Last reported at 2018-Feb-13 17:17 UTC. Time now 2018-Feb-20 23:47 UTC.
Position N 09°35' W 079°57'.

Length 214 m; draft 7.6 m.

Type: Tanker. MMSI: 636012508.

Date/timePositionNaut miles runAvg speedWind from/ knotsBaromVisibWave heightAir tempDewpointWater temp
2018-Feb-13 17:17N 09°35' W 079°57'311.1
2018-Feb-13 16:59N 09°31' W 079°56'510.8
2018-Feb-13 16:30N 09°26' W 079°55'5 9.4
2018-Feb-13 16:00N 09°22' W 079°55'1 2.2
2018-Feb-13 15:30N 09°21' W 079°54'0 0.0
2018-Feb-13 14:58N 09°21' W 079°54'0 0.0
2018-Feb-13 14:28N 09°21' W 079°54'0 0.0
2018-Feb-13 13:58N 09°21' W 079°54'0 0.0
2018-Feb-13 13:28N 09°21' W 079°54'0 0.0
2018-Feb-13 12:46N 09°21' W 079°54'0 0.0
2018-Feb-13 12:25N 09°21' W 079°54'0 0.0
2018-Feb-13 11:52N 09°21' W 079°54'0 0.0
2018-Feb-13 11:28N 09°21' W 079°54'0 0.0
2018-Feb-13 10:55N 09°21' W 079°54'0 0.0
2018-Feb-13 10:28N 09°21' W 079°54'0 0.0
2018-Feb-13 09:58N 09°21' W 079°54'0 0.0
2018-Feb-13 09:28N 09°21' W 079°54'0 0.0
2018-Feb-13 08:55N 09°21' W 079°54'0 0.0
2018-Feb-13 08:28N 09°21' W 079°54'0 0.0
2018-Feb-13 07:58N 09°21' W 079°54'0 0.0
2018-Feb-13 07:28N 09°21' W 079°54'0 0.0
2018-Feb-13 06:58N 09°21' W 079°54'0 0.0
2018-Feb-13 06:28N 09°21' W 079°54'0 0.0
2018-Feb-13 05:58N 09°21' W 079°54'0 0.0
2018-Feb-13 05:28N 09°21' W 079°54'0 0.0
2018-Feb-13 04:58N 09°21' W 079°54'0 0.0
2018-Feb-13 04:28N 09°21' W 079°54'0 0.0
2018-Feb-13 03:58N 09°21' W 079°54'0 0.0
2018-Feb-13 03:28N 09°21' W 079°54'0 0.0
2018-Feb-13 02:58N 09°21' W 079°54'0 0.0
2018-Feb-13 02:28N 09°21' W 079°54'0 0.0
2018-Feb-13 01:55N 09°21' W 079°54'0 0.0
2018-Feb-13 01:28N 09°21' W 079°54'0 0.0
2018-Feb-13 00:55N 09°21' W 079°54'0 0.0
2018-Feb-13 00:28N 09°21' W 079°54'0 0.0
2018-Feb-12 23:58N 09°21' W 079°54'0 0.0
2018-Feb-12 23:28N 09°21' W 079°54'0 0.0
2018-Feb-12 22:58N 09°21' W 079°54'0 0.0
2018-Feb-12 22:28N 09°21' W 079°54'0 0.0
2018-Feb-12 21:58N 09°21' W 079°54'0 0.0
2018-Feb-12 21:28N 09°21' W 079°54'0 0.0
2018-Feb-12 20:58N 09°21' W 079°54'0 0.0
2018-Feb-12 20:28N 09°21' W 079°54'0 0.0
2018-Feb-12 19:58N 09°21' W 079°54'0 0.0
2018-Feb-12 19:28N 09°21' W 079°54'0 0.0
2018-Feb-12 18:58N 09°21' W 079°54'0 0.0
2018-Feb-12 18:28N 09°21' W 079°54'0 0.0
2018-Feb-12 17:58N 09°21' W 079°54'0 0.0
2018-Feb-12 17:04N 09°21' W 079°54'0 0.0
2018-Feb-12 16:40N 09°21' W 079°54'0 0.0
2018-Feb-12 16:25N 09°21' W 079°54'0 0.0
2018-Feb-12 15:37N 09°21' W 079°54'0 0.0
2018-Feb-12 15:16N 09°21' W 079°54'0 0.0
2018-Feb-12 14:58N 09°21' W 079°54'0 0.0
2018-Feb-12 14:28N 09°21' W 079°54'0 0.0
2018-Feb-12 13:58N 09°21' W 079°54'0 0.0
2018-Feb-12 13:25N 09°21' W 079°54'0 0.0
2018-Feb-12 12:58N 09°21' W 079°54'0 0.0
2018-Feb-12 12:28N 09°21' W 079°54'0 0.0
2018-Feb-12 11:58N 09°21' W 079°54'0 0.0
2018-Feb-12 11:22N 09°21' W 079°54'0 0.0
2018-Feb-12 10:58N 09°21' W 079°54'0 0.0
2018-Feb-12 10:28N 09°21' W 079°54'0 0.0
2018-Feb-12 09:58N 09°21' W 079°54'0 0.3
2018-Feb-12 09:30N 09°21' W 079°55'1 1.8
2018-Feb-12 09:00N 09°21' W 079°55'2 4.9
2018-Feb-12 08:30N 09°24' W 079°55'2 4.2
2018-Feb-12 08:00N 09°26' W 079°55'2 3.1
2018-Feb-12 07:30N 09°27' W 079°54'2 5.0
2018-Feb-12 07:00N 09°28' W 079°52'0 0.2
2018-Feb-12 06:28N 09°27' W 079°52'0 0.0
2018-Feb-12 05:58N 09°27' W 079°52'0 0.0
2018-Feb-12 05:28N 09°27' W 079°52'0 0.0
2018-Feb-12 04:58N 09°27' W 079°52'0 0.0
2018-Feb-12 04:28N 09°27' W 079°52'0 0.0
2018-Feb-12 03:58N 09°27' W 079°52'0 0.0
2018-Feb-12 03:28N 09°27' W 079°52'0 0.0
2018-Feb-12 02:58N 09°27' W 079°52'0 0.0
2018-Feb-12 02:28N 09°27' W 079°52'0 0.0
2018-Feb-12 01:58N 09°27' W 079°52'0 0.0
2018-Feb-12 01:28N 09°27' W 079°52'0 0.0
2018-Feb-12 00:58N 09°27' W 079°52'0 0.1
2018-Feb-12 00:28N 09°27' W 079°52'0 0.0
2018-Feb-11 23:58N 09°27' W 079°52'0 0.0
2018-Feb-11 23:28N 09°27' W 079°52'0 0.0
2018-Feb-11 22:58N 09°27' W 079°52'0 0.0
2018-Feb-11 22:28N 09°27' W 079°52'0 0.0
2018-Feb-11 21:58N 09°27' W 079°52'0 0.0
2018-Feb-11 21:28N 09°27' W 079°52'0 0.0
2018-Feb-11 20:58N 09°27' W 079°52'0 0.0
2018-Feb-11 20:28N 09°27' W 079°52'0 0.0
2018-Feb-11 19:58N 09°27' W 079°52'0 0.0
2018-Feb-11 19:28N 09°27' W 079°52'0 0.0
2018-Feb-11 18:58N 09°27' W 079°52'0 0.1
2018-Feb-11 18:22N 09°27' W 079°52'0 0.0
2018-Feb-11 17:55N 09°27' W 079°52'0 0.0
2018-Feb-11 17:28N 09°27' W 079°52'0 0.0
2018-Feb-11 16:58N 09°28' W 079°52'0 0.1
2018-Feb-11 16:28N 09°27' W 079°52'0 0.0
2018-Feb-11 15:58N 09°27' W 079°52'0 0.0
2018-Feb-11 15:28N 09°27' W 079°52'0 0.1
2018-Feb-11 14:52N 09°28' W 079°52'0 0.0
2018-Feb-11 14:28N 09°27' W 079°52'0 0.0
2018-Feb-11 13:58N 09°28' W 079°52'0 0.1
2018-Feb-11 13:28N 09°27' W 079°52'0 0.0
2018-Feb-11 12:49N 09°27' W 079°52'0 0.1
2018-Feb-11 12:28N 09°27' W 079°52'0 0.0
2018-Feb-11 11:58N 09°27' W 079°52'0 0.0
2018-Feb-11 11:28N 09°27' W 079°52'0 0.0
2018-Feb-11 10:58N 09°27' W 079°52'0 0.1
2018-Feb-11 10:28N 09°27' W 079°52'0 0.0
2018-Feb-11 09:58N 09°27' W 079°52'0 0.0
2018-Feb-11 08:43N 09°27' W 079°52'0 0.1
2018-Feb-11 08:28N 09°27' W 079°52'0 0.0
2018-Feb-11 07:58N 09°27' W 079°52'0 0.0
2018-Feb-11 07:28N 09°27' W 079°52'0 0.0
2018-Feb-11 06:58N 09°27' W 079°52'0 0.0
2018-Feb-11 06:28N 09°27' W 079°52'0 0.0
2018-Feb-11 05:58N 09°27' W 079°52'0 0.0
2018-Feb-11 05:28N 09°27' W 079°52'0 0.0
2018-Feb-11 04:58N 09°27' W 079°52'0 0.0
2018-Feb-11 04:28N 09°27' W 079°52'0 0.0
2018-Feb-11 03:58N 09°27' W 079°52'0 0.0
2018-Feb-11 03:19N 09°27' W 079°52'0 0.1
2018-Feb-11 02:58N 09°27' W 079°52'0 0.0
2018-Feb-11 02:28N 09°27' W 079°52'0 0.0
2018-Feb-11 01:58N 09°27' W 079°52'0 0.0
2018-Feb-11 01:28N 09°27' W 079°52'0 0.0
2018-Feb-11 00:58N 09°27' W 079°52'0 0.0
2018-Feb-11 00:28N 09°27' W 079°52'0 0.0
2018-Feb-10 23:55N 09°27' W 079°52'0 0.0
2018-Feb-10 23:28N 09°27' W 079°52'0 0.1
2018-Feb-10 22:55N 09°27' W 079°52'0 0.0
2018-Feb-10 22:25N 09°27' W 079°52'0 0.0
2018-Feb-10 21:58N 09°28' W 079°52'0 0.0
2018-Feb-10 21:28N 09°27' W 079°52'0 0.1
2018-Feb-10 20:58N 09°27' W 079°52'0 0.0
2018-Feb-10 20:28N 09°27' W 079°52'0 0.1
2018-Feb-10 19:58N 09°28' W 079°52'0 0.0
2018-Feb-10 19:28N 09°28' W 079°52'0 0.1
2018-Feb-10 18:58N 09°27' W 079°52'0 0.1
2018-Feb-10 18:19N 09°28' W 079°52'0 0.1
2018-Feb-10 17:46N 09°27' W 079°52'0 0.1
2018-Feb-10 17:25N 09°28' W 079°52'0 0.1
2018-Feb-10 16:58N 09°27' W 079°52'0 0.0
2018-Feb-10 16:28N 09°27' W 079°52'0 0.1
2018-Feb-10 15:58N 09°28' W 079°52'0 0.1
2018-Feb-10 15:28N 09°27' W 079°52'0 0.1
2018-Feb-10 14:55N 09°28' W 079°52'0 0.1
2018-Feb-10 14:22N 09°27' W 079°52'0 0.0
2018-Feb-10 13:55N 09°27' W 079°52'0 0.1
2018-Feb-10 13:28N 09°28' W 079°52'0 0.0
2018-Feb-10 12:52N 09°27' W 079°52'0 0.1
2018-Feb-10 12:28N 09°27' W 079°52'0 0.1
2018-Feb-10 11:55N 09°27' W 079°52'0 0.0
2018-Feb-10 11:25N 09°27' W 079°52'0 0.1
2018-Feb-10 10:58N 09°27' W 079°52'0 0.1
2018-Feb-10 10:25N 09°28' W 079°52'0 0.0
2018-Feb-10 09:58N 09°27' W 079°52'0 0.1
2018-Feb-10 09:28N 09°27' W 079°52'0 0.1
2018-Feb-10 08:58N 09°27' W 079°52'0 0.0
2018-Feb-10 08:25N 09°27' W 079°52'0 0.0
2018-Feb-10 07:52N 09°27' W 079°52'0 0.0
2018-Feb-10 07:28N 09°27' W 079°52'0 0.1
2018-Feb-10 06:58N 09°28' W 079°52'0 0.0
2018-Feb-10 06:28N 09°27' W 079°52'0 0.1
2018-Feb-10 05:58N 09°27' W 079°52'0 0.0
2018-Feb-10 05:25N 09°27' W 079°52'0 0.1
2018-Feb-10 04:58N 09°28' W 079°52'0 0.0
2018-Feb-10 04:22N 09°27' W 079°52'0 0.0
2018-Feb-10 03:58N 09°27' W 079°52'0 0.0
2018-Feb-10 03:28N 09°28' W 079°52'0 0.5
2018-Feb-10 03:01N 09°28' W 079°52'2 3.2
2018-Feb-10 02:31N 09°27' W 079°53'2 4.2
2018-Feb-10 02:01N 09°25' W 079°55'1 2.8
2018-Feb-10 01:30N 09°24' W 079°54'2 4.3
2018-Feb-10 01:01N 09°22' W 079°53'0 0.4
2018-Feb-10 00:29N 09°22' W 079°53'0 0.0
2018-Feb-09 23:59N 09°22' W 079°53'0 0.0
2018-Feb-09 23:29N 09°22' W 079°53'0 0.0
2018-Feb-09 22:56N 09°22' W 079°53'0 0.0
2018-Feb-09 22:41N 09°22' W 079°53'  

Dump ship's entire track history